SANT/TUC METAR and TAF weather

Enter ICAO airport designator
Station Type Date Time Source
SANT METAR 2020/05/29 19:00 UTC NOAA

SANT 291900Z 14003KT 7000 NSC 27/12 Q1010


Station Type Date Time Source
SANT Decoded METAR 2020/05/29 19:00 UTC NOAA

Tucuman Aerodrome, Argentina (SANT) 26-51S 065-06W 450M
May 29, 2020 - 03:00 PM EDT / 2020.05.29 1900 UTC
Wind: from the SE (140 degrees) at 3 MPH (3 KT):0
Visibility: 4 mile(s):0
Temperature: 80 F (27 C)
Dew Point: 53 F (12 C)
Relative Humidity: 39%
Pressure (altimeter): 29.83 in. Hg (1010 hPa)
ob: SANT 291900Z 14003KT 7000 NSC 27/12 Q1010
cycle: 19

Station Type Date Time Source
SANT TAF 2020/05/29 18:09 UTC NOAA

TAF TAF SANT 291700Z 2918/3018 VRB04KT CAVOK TX26/3018Z TN12/3010Z
BECMG 3008/3011 23005KT 5000 BR SCT010 BKN020
BECMG 3012/3015 23010KT 9999 NSW SCT012 BKN025

Example: see airport list